Ninaview, Colorado
Current Conditions -  °F | °C
As of 8:53 AM on Wednesday 22 Oct 2014 (Local Time) from KLHX Reporting Station
Clear Clear  
Wind Chill: 59°   Ceiling: Unl
Heat Index: 59°   Visibility: 10mi
Dew Point: 47°   Wind: 3mph
Humidity: 64%   Direction: 360°N
Pressure: 30.07"   Gusts: NA
Location:  37.8567°N, 103.111°W
Report Text: KLHX 221453Z AUTO 36003KT 10SM CLR 15/08 A3007 RMK AO2 SLP142 T01500083 53021
Loading
Personal Weather Stations






























Interactive Weather Map
Tropical Storm Tracking
New forecast layout! Learn more

10-Day Weather Forecast

Advertisements
Track Severe Weather on mobile